sensor_id;sensor_type;location;lat;lon;timestamp;temperature;humidity
22112;DHT22;11222;50.872;4.312;2024-03-23T00:54:13;9.10;99.90
22112;DHT22;11222;50.872;4.312;2024-03-23T00:56:39;9.10;99.90
22112;DHT22;11222;50.872;4.312;2024-03-23T00:59:04;9.10;99.90
22112;DHT22;11222;50.872;4.312;2024-03-23T01:01:30;9.20;99.90
22112;DHT22;11222;50.872;4.312;2024-03-23T01:03:55;9.20;99.90
22112;DHT22;11222;50.872;4.312;2024-03-23T01:06:21;9.20;99.90
22112;DHT22;11222;50.872;4.312;2024-03-23T01:08:46;9.30;99.90
22112;DHT22;11222;50.872;4.312;2024-03-23T01:11:12;9.30;99.90
22112;DHT22;11222;50.872;4.312;2024-03-23T01:13:37;9.30;99.90
22112;DHT22;11222;50.872;4.312;2024-03-23T01:16:03;9.20;99.90
22112;DHT22;11222;50.872;4.312;2024-03-23T01:18:29;9.00;99.90
22112;DHT22;11222;50.872;4.312;2024-03-23T01:20:54;8.90;99.90
22112;DHT22;11222;50.872;4.312;2024-03-23T01:23:20;8.80;99.90
22112;DHT22;11222;50.872;4.312;2024-03-23T01:25:52;8.80;99.90
22112;DHT22;11222;50.872;4.312;2024-03-23T01:28:18;8.80;99.90
22112;DHT22;11222;50.872;4.312;2024-03-23T01:30:44;8.90;99.90
22112;DHT22;11222;50.872;4.312;2024-03-23T01:33:10;8.80;99.90
22112;DHT22;11222;50.872;4.312;2024-03-23T01:35:35;8.70;99.90
22112;DHT22;11222;50.872;4.312;2024-03-23T01:38:01;8.70;99.90
22112;DHT22;11222;50.872;4.312;2024-03-23T01:40:26;8.70;99.90
22112;DHT22;11222;50.872;4.312;2024-03-23T01:42:57;8.60;99.90
22112;DHT22;11222;50.872;4.312;2024-03-23T01:45:23;8.60;99.90
22112;DHT22;11222;50.872;4.312;2024-03-23T01:47:51;8.50;99.90
22112;DHT22;11222;50.872;4.312;2024-03-23T01:50:17;8.40;99.90
22112;DHT22;11222;50.872;4.312;2024-03-23T01:52:43;8.30;99.90
22112;DHT22;11222;50.872;4.312;2024-03-23T01:55:09;8.30;99.90
22112;DHT22;11222;50.872;4.312;2024-03-23T01:57:35;8.40;99.90
22112;DHT22;11222;50.872;4.312;2024-03-23T02:00:00;8.50;99.90
22112;DHT22;11222;50.872;4.312;2024-03-23T02:02:26;8.50;99.90
22112;DHT22;11222;50.872;4.312;2024-03-23T02:04:51;8.50;99.90
22112;DHT22;11222;50.872;4.312;2024-03-23T02:07:17;8.50;99.90
22112;DHT22;11222;50.872;4.312;2024-03-23T02:09:43;8.50;99.90
22112;DHT22;11222;50.872;4.312;2024-03-23T02:12:09;8.50;99.90
22112;DHT22;11222;50.872;4.312;2024-03-23T02:14:34;8.50;99.90
22112;DHT22;11222;50.872;4.312;2024-03-23T02:17:00;8.50;99.90
22112;DHT22;11222;50.872;4.312;2024-03-23T02:19:25;8.50;99.90
22112;DHT22;11222;50.872;4.312;2024-03-23T02:21:51;8.40;99.90
22112;DHT22;11222;50.872;4.312;2024-03-23T02:24:16;8.50;99.90
22112;DHT22;11222;50.872;4.312;2024-03-23T02:26:42;8.40;99.90
22112;DHT22;11222;50.872;4.312;2024-03-23T02:29:08;8.40;99.90
22112;DHT22;11222;50.872;4.312;2024-03-23T02:31:34;8.40;99.90
22112;DHT22;11222;50.872;4.312;2024-03-23T02:34:00;8.40;99.90
22112;DHT22;11222;50.872;4.312;2024-03-23T02:36:25;8.40;99.90
22112;DHT22;11222;50.872;4.312;2024-03-23T02:38:51;8.40;99.90
22112;DHT22;11222;50.872;4.312;2024-03-23T02:41:17;8.40;99.90
22112;DHT22;11222;50.872;4.312;2024-03-23T02:43:51;8.40;99.90
22112;DHT22;11222;50.872;4.312;2024-03-23T02:46:16;8.40;99.90
22112;DHT22;11222;50.872;4.312;2024-03-23T02:48:42;8.40;99.90
22112;DHT22;11222;50.872;4.312;2024-03-23T02:51:07;8.40;99.90
22112;DHT22;11222;50.872;4.312;2024-03-23T02:53:33;8.40;99.90
22112;DHT22;11222;50.872;4.312;2024-03-23T02:55:58;8.30;99.90
22112;DHT22;11222;50.872;4.312;2024-03-23T02:58:24;8.20;99.90
22112;DHT22;11222;50.872;4.312;2024-03-23T03:00:49;8.20;99.90
22112;DHT22;11222;50.872;4.312;2024-03-23T03:03:15;8.30;99.90
22112;DHT22;11222;50.872;4.312;2024-03-23T03:05:41;8.30;99.90
22112;DHT22;11222;50.872;4.312;2024-03-23T03:08:06;8.30;99.90
22112;DHT22;11222;50.872;4.312;2024-03-23T03:10:32;8.20;99.90
22112;DHT22;11222;50.872;4.312;2024-03-23T03:13:00;8.20;99.90
22112;DHT22;11222;50.872;4.312;2024-03-23T03:15:25;8.20;99.90
22112;DHT22;11222;50.872;4.312;2024-03-23T03:17:51;8.30;99.90
22112;DHT22;11222;50.872;4.312;2024-03-23T03:20:17;8.30;99.90
22112;DHT22;11222;50.872;4.312;2024-03-23T03:22:43;8.30;99.90
22112;DHT22;11222;50.872;4.312;2024-03-23T03:25:09;8.30;99.90
22112;DHT22;11222;50.872;4.312;2024-03-23T03:27:34;8.30;99.90
22112;DHT22;11222;50.872;4.312;2024-03-23T03:30:00;8.30;99.90
22112;DHT22;11222;50.872;4.312;2024-03-23T03:32:31;8.20;99.90
22112;DHT22;11222;50.872;4.312;2024-03-23T03:34:57;8.20;99.90
22112;DHT22;11222;50.872;4.312;2024-03-23T03:37:22;8.20;99.90
22112;DHT22;11222;50.872;4.312;2024-03-23T03:39:48;8.20;99.90
22112;DHT22;11222;50.872;4.312;2024-03-23T03:42:14;8.20;99.90
22112;DHT22;11222;50.872;4.312;2024-03-23T03:44:39;8.10;99.90
22112;DHT22;11222;50.872;4.312;2024-03-23T03:47:05;8.10;99.90
22112;DHT22;11222;50.872;4.312;2024-03-23T03:49:31;8.00;99.90
22112;DHT22;11222;50.872;4.312;2024-03-23T03:51:56;8.00;99.90
22112;DHT22;11222;50.872;4.312;2024-03-23T03:54:22;7.90;99.90
22112;DHT22;11222;50.872;4.312;2024-03-23T03:56:47;7.80;99.90
22112;DHT22;11222;50.872;4.312;2024-03-23T03:59:13;7.70;99.90
22112;DHT22;11222;50.872;4.312;2024-03-23T04:01:39;7.70;99.90
22112;DHT22;11222;50.872;4.312;2024-03-23T04:04:05;7.70;99.90
22112;DHT22;11222;50.872;4.312;2024-03-23T04:06:31;7.70;99.90
22112;DHT22;11222;50.872;4.312;2024-03-23T04:08:58;7.70;99.90
22112;DHT22;11222;50.872;4.312;2024-03-23T04:11:24;7.70;99.90
22112;DHT22;11222;50.872;4.312;2024-03-23T04:13:49;7.60;99.90
22112;DHT22;11222;50.872;4.312;2024-03-23T04:16:24;7.60;99.90
22112;DHT22;11222;50.872;4.312;2024-03-23T04:18:50;7.70;99.90
22112;DHT22;11222;50.872;4.312;2024-03-23T04:21:15;7.70;99.90
22112;DHT22;11222;50.872;4.312;2024-03-23T04:23:41;7.70;99.90
22112;DHT22;11222;50.872;4.312;2024-03-23T04:26:06;7.60;99.90
22112;DHT22;11222;50.872;4.312;2024-03-23T04:28:31;7.60;99.90
22112;DHT22;11222;50.872;4.312;2024-03-23T04:30:57;7.60;99.90
22112;DHT22;11222;50.872;4.312;2024-03-23T04:33:23;7.50;99.90
22112;DHT22;11222;50.872;4.312;2024-03-23T04:35:49;7.50;99.90
22112;DHT22;11222;50.872;4.312;2024-03-23T04:38:14;7.50;99.90
22112;DHT22;11222;50.872;4.312;2024-03-23T04:40:40;7.60;99.90
22112;DHT22;11222;50.872;4.312;2024-03-23T04:43:06;7.60;99.90
22112;DHT22;11222;50.872;4.312;2024-03-23T04:45:31;7.60;99.90
22112;DHT22;11222;50.872;4.312;2024-03-23T04:47:57;7.60;99.90
22112;DHT22;11222;50.872;4.312;2024-03-23T04:50:22;7.60;99.90
22112;DHT22;11222;50.872;4.312;2024-03-23T04:52:48;7.50;99.90
22112;DHT22;11222;50.872;4.312;2024-03-23T04:55:13;7.40;99.90
22112;DHT22;11222;50.872;4.312;2024-03-23T04:57:39;7.30;99.90
22112;DHT22;11222;50.872;4.312;2024-03-23T05:00:05;7.30;99.90
22112;DHT22;11222;50.872;4.312;2024-03-23T05:02:42;7.30;99.90
22112;DHT22;11222;50.872;4.312;2024-03-23T05:05:08;7.20;99.90
22112;DHT22;11222;50.872;4.312;2024-03-23T05:07:35;7.20;99.90
22112;DHT22;11222;50.872;4.312;2024-03-23T05:10:01;7.30;99.90
22112;DHT22;11222;50.872;4.312;2024-03-23T05:12:26;7.30;99.90
22112;DHT22;11222;50.872;4.312;2024-03-23T05:14:52;7.20;99.90
22112;DHT22;11222;50.872;4.312;2024-03-23T05:17:18;7.30;99.90
22112;DHT22;11222;50.872;4.312;2024-03-23T05:19:43;7.20;99.90
22112;DHT22;11222;50.872;4.312;2024-03-23T05:22:09;7.20;99.90
22112;DHT22;11222;50.872;4.312;2024-03-23T05:24:35;7.30;99.90
22112;DHT22;11222;50.872;4.312;2024-03-23T05:27:00;7.20;99.90
22112;DHT22;11222;50.872;4.312;2024-03-23T05:29:26;7.20;99.90
22112;DHT22;11222;50.872;4.312;2024-03-23T05:31:52;7.20;99.90
22112;DHT22;11222;50.872;4.312;2024-03-23T05:34:17;7.20;99.90
22112;DHT22;11222;50.872;4.312;2024-03-23T05:36:43;7.20;99.90
22112;DHT22;11222;50.872;4.312;2024-03-23T05:39:08;7.10;99.90
22112;DHT22;11222;50.872;4.312;2024-03-23T05:41:34;7.10;99.90
22112;DHT22;11222;50.872;4.312;2024-03-23T05:44:02;7.10;99.90
22112;DHT22;11222;50.872;4.312;2024-03-23T05:46:27;7.10;99.90
22112;DHT22;11222;50.872;4.312;2024-03-23T05:48:53;7.20;99.90
22112;DHT22;11222;50.872;4.312;2024-03-23T05:51:19;7.10;99.90
22112;DHT22;11222;50.872;4.312;2024-03-23T05:53:44;7.20;99.90
22112;DHT22;11222;50.872;4.312;2024-03-23T05:56:10;7.10;99.90
22112;DHT22;11222;50.872;4.312;2024-03-23T05:58:35;7.10;99.90
22112;DHT22;11222;50.872;4.312;2024-03-23T06:01:01;7.10;99.90
22112;DHT22;11222;50.872;4.312;2024-03-23T06:03:27;7.20;99.90
22112;DHT22;11222;50.872;4.312;2024-03-23T06:05:52;7.20;99.90
22112;DHT22;11222;50.872;4.312;2024-03-23T06:08:18;7.20;99.90
22112;DHT22;11222;50.872;4.312;2024-03-23T06:10:45;7.30;99.90
22112;DHT22;11222;50.872;4.312;2024-03-23T06:13:10;7.20;99.90
22112;DHT22;11222;50.872;4.312;2024-03-23T06:15:36;7.30;99.90
22112;DHT22;11222;50.872;4.312;2024-03-23T06:18:03;7.30;99.90
22112;DHT22;11222;50.872;4.312;2024-03-23T06:20:30;7.30;99.90
22112;DHT22;11222;50.872;4.312;2024-03-23T06:22:55;7.30;99.90
22112;DHT22;11222;50.872;4.312;2024-03-23T06:25:21;7.30;99.90
22112;DHT22;11222;50.872;4.312;2024-03-23T06:27:46;7.30;99.90
22112;DHT22;11222;50.872;4.312;2024-03-23T06:30:12;7.30;99.90
22112;DHT22;11222;50.872;4.312;2024-03-23T06:32:37;7.30;99.90
22112;DHT22;11222;50.872;4.312;2024-03-23T06:35:03;7.40;99.90
22112;DHT22;11222;50.872;4.312;2024-03-23T06:37:33;7.30;99.90
22112;DHT22;11222;50.872;4.312;2024-03-23T06:39:59;7.30;99.90
22112;DHT22;11222;50.872;4.312;2024-03-23T06:42:24;7.30;99.90
22112;DHT22;11222;50.872;4.312;2024-03-23T06:44:50;7.30;99.90
22112;DHT22;11222;50.872;4.312;2024-03-23T06:47:16;7.20;99.90
22112;DHT22;11222;50.872;4.312;2024-03-23T06:49:41;7.30;99.90
22112;DHT22;11222;50.872;4.312;2024-03-23T06:52:07;7.30;99.90
22112;DHT22;11222;50.872;4.312;2024-03-23T06:54:32;7.30;99.90
22112;DHT22;11222;50.872;4.312;2024-03-23T06:56:58;7.40;99.90
22112;DHT22;11222;50.872;4.312;2024-03-23T06:59:23;7.40;99.90
22112;DHT22;11222;50.872;4.312;2024-03-23T07:01:49;7.30;99.90
22112;DHT22;11222;50.872;4.312;2024-03-23T07:04:15;7.20;99.90
22112;DHT22;11222;50.872;4.312;2024-03-23T07:06:44;7.00;99.90
22112;DHT22;11222;50.872;4.312;2024-03-23T07:09:10;6.90;99.90
22112;DHT22;11222;50.872;4.312;2024-03-23T07:11:36;6.70;99.90
22112;DHT22;11222;50.872;4.312;2024-03-23T07:14:01;6.70;99.90
22112;DHT22;11222;50.872;4.312;2024-03-23T07:16:28;6.50;99.90
22112;DHT22;11222;50.872;4.312;2024-03-23T07:18:53;6.40;99.90
22112;DHT22;11222;50.872;4.312;2024-03-23T07:21:19;6.40;99.90
22112;DHT22;11222;50.872;4.312;2024-03-23T07:23:45;6.40;99.90
22112;DHT22;11222;50.872;4.312;2024-03-23T07:26:10;6.40;99.90
22112;DHT22;11222;50.872;4.312;2024-03-23T07:28:36;6.60;99.90
22112;DHT22;11222;50.872;4.312;2024-03-23T07:33:31;6.90;99.90
22112;DHT22;11222;50.872;4.312;2024-03-23T07:35:57;7.10;99.90
22112;DHT22;11222;50.872;4.312;2024-03-23T07:38:23;7.20;99.90
22112;DHT22;11222;50.872;4.312;2024-03-23T07:40:49;7.20;99.90
22112;DHT22;11222;50.872;4.312;2024-03-23T07:43:21;7.40;99.90
22112;DHT22;11222;50.872;4.312;2024-03-23T07:45:53;7.40;99.90
22112;DHT22;11222;50.872;4.312;2024-03-23T07:48:18;7.60;99.90
22112;DHT22;11222;50.872;4.312;2024-03-23T07:50:44;7.80;99.90
22112;DHT22;11222;50.872;4.312;2024-03-23T07:53:09;7.70;99.90
22112;DHT22;11222;50.872;4.312;2024-03-23T07:55:35;7.60;99.90
22112;DHT22;11222;50.872;4.312;2024-03-23T07:58:00;7.50;99.90
22112;DHT22;11222;50.872;4.312;2024-03-23T08:00:26;7.70;99.90
22112;DHT22;11222;50.872;4.312;2024-03-23T08:02:51;7.80;99.90
22112;DHT22;11222;50.872;4.312;2024-03-23T08:05:17;7.70;99.90
22112;DHT22;11222;50.872;4.312;2024-03-23T08:07:43;7.70;99.90
22112;DHT22;11222;50.872;4.312;2024-03-23T08:10:08;7.70;99.90
22112;DHT22;11222;50.872;4.312;2024-03-23T08:12:34;7.70;99.90
22112;DHT22;11222;50.872;4.312;2024-03-23T08:14:59;7.80;99.90
22112;DHT22;11222;50.872;4.312;2024-03-23T08:17:25;7.80;99.90
22112;DHT22;11222;50.872;4.312;2024-03-23T08:19:50;7.90;99.90
22112;DHT22;11222;50.872;4.312;2024-03-23T08:22:17;8.10;99.90
22112;DHT22;11222;50.872;4.312;2024-03-23T08:24:43;8.10;99.90
22112;DHT22;11222;50.872;4.312;2024-03-23T08:27:08;8.20;99.90
22112;DHT22;11222;50.872;4.312;2024-03-23T08:29:34;8.00;99.90
22112;DHT22;11222;50.872;4.312;2024-03-23T08:31:59;8.00;99.90
22112;DHT22;11222;50.872;4.312;2024-03-23T08:34:26;8.00;99.90
22112;DHT22;11222;50.872;4.312;2024-03-23T08:36:51;8.10;99.90
22112;DHT22;11222;50.872;4.312;2024-03-23T08:39:17;8.10;99.90
22112;DHT22;11222;50.872;4.312;2024-03-23T08:41:42;8.20;99.90
22112;DHT22;11222;50.872;4.312;2024-03-23T08:44:11;8.10;99.90
22112;DHT22;11222;50.872;4.312;2024-03-23T08:46:36;8.00;99.90
22112;DHT22;11222;50.872;4.312;2024-03-23T08:49:02;8.00;99.90
22112;DHT22;11222;50.872;4.312;2024-03-23T08:51:27;8.20;99.90
22112;DHT22;11222;50.872;4.312;2024-03-23T08:53:53;8.30;99.90
22112;DHT22;11222;50.872;4.312;2024-03-23T08:56:18;8.40;99.90
22112;DHT22;11222;50.872;4.312;2024-03-23T08:58:45;8.50;99.90
22112;DHT22;11222;50.872;4.312;2024-03-23T09:01:11;8.70;99.90
22112;DHT22;11222;50.872;4.312;2024-03-23T09:03:38;8.90;99.90
22112;DHT22;11222;50.872;4.312;2024-03-23T09:06:07;9.10;99.90
22112;DHT22;11222;50.872;4.312;2024-03-23T09:08:33;9.30;99.90
22112;DHT22;11222;50.872;4.312;2024-03-23T09:11:04;9.30;99.90
22112;DHT22;11222;50.872;4.312;2024-03-23T09:13:32;9.20;99.90
22112;DHT22;11222;50.872;4.312;2024-03-23T09:15:58;9.40;99.90
22112;DHT22;11222;50.872;4.312;2024-03-23T09:18:23;9.60;99.90
22112;DHT22;11222;50.872;4.312;2024-03-23T09:20:49;9.90;99.90
22112;DHT22;11222;50.872;4.312;2024-03-23T09:23:14;9.90;99.90
22112;DHT22;11222;50.872;4.312;2024-03-23T09:25:40;9.80;99.40
22112;DHT22;11222;50.872;4.312;2024-03-23T09:28:06;9.50;93.40
22112;DHT22;11222;50.872;4.312;2024-03-23T09:30:35;10.00;88.80
22112;DHT22;11222;50.872;4.312;2024-03-23T09:33:02;9.80;92.10
22112;DHT22;11222;50.872;4.312;2024-03-23T09:35:27;10.00;93.50
22112;DHT22;11222;50.872;4.312;2024-03-23T09:37:53;10.80;75.60
22112;DHT22;11222;50.872;4.312;2024-03-23T09:40:19;10.80;77.90
22112;DHT22;11222;50.872;4.312;2024-03-23T09:42:49;11.10;51.50
22112;DHT22;11222;50.872;4.312;2024-03-23T09:45:22;11.60;44.00
22112;DHT22;11222;50.872;4.312;2024-03-23T09:47:47;10.90;38.60
22112;DHT22;11222;50.872;4.312;2024-03-23T09:50:13;10.40;35.90
22112;DHT22;11222;50.872;4.312;2024-03-23T09:52:39;11.00;43.50
22112;DHT22;11222;50.872;4.312;2024-03-23T09:55:05;12.30;25.30
22112;DHT22;11222;50.872;4.312;2024-03-23T09:57:32;12.60;8.70
22112;DHT22;11222;50.872;4.312;2024-03-23T09:59:59;12.70;1.00
22112;DHT22;11222;50.872;4.312;2024-03-23T10:02:24;11.00;1.00
22112;DHT22;11222;50.872;4.312;2024-03-23T10:04:50;10.00;7.50
22112;DHT22;11222;50.872;4.312;2024-03-23T10:07:20;9.60;20.20
22112;DHT22;11222;50.872;4.312;2024-03-23T10:09:46;10.50;26.80
22112;DHT22;11222;50.872;4.312;2024-03-23T10:12:12;10.70;14.70
22112;DHT22;11222;50.872;4.312;2024-03-23T10:14:39;10.80;19.60
22112;DHT22;11222;50.872;4.312;2024-03-23T10:19:41;10.60;12.80
22112;DHT22;11222;50.872;4.312;2024-03-23T10:22:08;10.70;10.00
22112;DHT22;11222;50.872;4.312;2024-03-23T10:24:34;11.40;9.20
22112;DHT22;11222;50.872;4.312;2024-03-23T10:27:01;11.40;3.80
22112;DHT22;11222;50.872;4.312;2024-03-23T10:29:27;10.80;1.00
22112;DHT22;11222;50.872;4.312;2024-03-23T10:31:53;10.10;2.20
22112;DHT22;11222;50.872;4.312;2024-03-23T10:34:25;9.70;8.00
22112;DHT22;11222;50.872;4.312;2024-03-23T10:36:54;10.50;5.70
22112;DHT22;11222;50.872;4.312;2024-03-23T10:39:21;10.80;2.90
22112;DHT22;11222;50.872;4.312;2024-03-23T10:41:49;11.20;1.00
22112;DHT22;11222;50.872;4.312;2024-03-23T10:44:16;12.10;1.00
22112;DHT22;11222;50.872;4.312;2024-03-23T10:46:42;13.00;1.00
22112;DHT22;11222;50.872;4.312;2024-03-23T10:49:08;12.70;1.00
22112;DHT22;11222;50.872;4.312;2024-03-23T10:51:33;12.20;1.00
22112;DHT22;11222;50.872;4.312;2024-03-23T10:53:59;11.40;1.00
22112;DHT22;11222;50.872;4.312;2024-03-23T10:56:25;11.50;1.00
22112;DHT22;11222;50.872;4.312;2024-03-23T10:58:51;12.40;1.00
22112;DHT22;11222;50.872;4.312;2024-03-23T11:01:18;12.90;1.00
22112;DHT22;11222;50.872;4.312;2024-03-23T11:03:47;13.40;1.00
22112;DHT22;11222;50.872;4.312;2024-03-23T11:06:33;12.80;1.00
22112;DHT22;11222;50.872;4.312;2024-03-23T11:08:59;12.10;1.00
22112;DHT22;11222;50.872;4.312;2024-03-23T11:11:24;13.10;1.00
22112;DHT22;11222;50.872;4.312;2024-03-23T11:13:51;12.60;1.00
22112;DHT22;11222;50.872;4.312;2024-03-23T11:16:21;13.40;1.00
22112;DHT22;11222;50.872;4.312;2024-03-23T11:18:46;14.00;1.00
22112;DHT22;11222;50.872;4.312;2024-03-23T11:21:51;14.60;1.00
22112;DHT22;11222;50.872;4.312;2024-03-23T11:24:13;15.00;1.00
22112;DHT22;11222;50.872;4.312;2024-03-23T11:26:39;15.80;99.90
22112;DHT22;11222;50.872;4.312;2024-03-23T11:29:11;15.70;99.90
22112;DHT22;11222;50.872;4.312;2024-03-23T11:31:37;15.10;99.90
22112;DHT22;11222;50.872;4.312;2024-03-23T11:34:06;14.30;99.90
22112;DHT22;11222;50.872;4.312;2024-03-23T11:36:32;13.60;99.90
22112;DHT22;11222;50.872;4.312;2024-03-23T11:38:57;14.20;99.90
22112;DHT22;11222;50.872;4.312;2024-03-23T11:41:23;13.90;99.90
22112;DHT22;11222;50.872;4.312;2024-03-23T11:43:49;14.10;99.90
22112;DHT22;11222;50.872;4.312;2024-03-23T11:46:23;14.20;99.90
22112;DHT22;11222;50.872;4.312;2024-03-23T11:48:49;15.00;99.90
22112;DHT22;11222;50.872;4.312;2024-03-23T11:51:15;15.00;99.90
22112;DHT22;11222;50.872;4.312;2024-03-23T11:53:41;14.50;99.90
22112;DHT22;11222;50.872;4.312;2024-03-23T11:56:13;13.90;99.90
22112;DHT22;11222;50.872;4.312;2024-03-23T11:58:38;13.60;99.90
22112;DHT22;11222;50.872;4.312;2024-03-23T12:01:04;13.90;99.90
22112;DHT22;11222;50.872;4.312;2024-03-23T12:03:35;14.40;99.90
22112;DHT22;11222;50.872;4.312;2024-03-23T12:06:02;14.30;99.90
22112;DHT22;11222;50.872;4.312;2024-03-23T12:11:15;13.50;99.90
22112;DHT22;11222;50.872;4.312;2024-03-23T12:13:40;13.70;99.90
22112;DHT22;11222;50.872;4.312;2024-03-23T12:16:13;12.40;99.90
22112;DHT22;11222;50.872;4.312;2024-03-23T12:18:39;11.20;99.90
22112;DHT22;11222;50.872;4.312;2024-03-23T12:21:05;10.20;99.90
22112;DHT22;11222;50.872;4.312;2024-03-23T12:23:31;9.70;99.90
22112;DHT22;11222;50.872;4.312;2024-03-23T12:25:57;9.50;99.90
22112;DHT22;11222;50.872;4.312;2024-03-23T12:28:23;9.50;99.90
22112;DHT22;11222;50.872;4.312;2024-03-23T12:30:48;9.90;99.90
22112;DHT22;11222;50.872;4.312;2024-03-23T12:33:14;10.00;99.90
22112;DHT22;11222;50.872;4.312;2024-03-23T12:35:39;10.00;1.00
22112;DHT22;11222;50.872;4.312;2024-03-23T12:38:05;10.10;1.00
22112;DHT22;11222;50.872;4.312;2024-03-23T12:40:30;10.20;1.00
22112;DHT22;11222;50.872;4.312;2024-03-23T12:42:56;10.30;1.00
22112;DHT22;11222;50.872;4.312;2024-03-23T12:45:22;10.40;1.00
22112;DHT22;11222;50.872;4.312;2024-03-23T12:47:48;10.40;1.00
22112;DHT22;11222;50.872;4.312;2024-03-23T12:50:13;10.50;1.00
22112;DHT22;11222;50.872;4.312;2024-03-23T12:52:39;10.70;1.00
22112;DHT22;11222;50.872;4.312;2024-03-23T12:55:05;10.60;1.00
22112;DHT22;11222;50.872;4.312;2024-03-23T12:57:31;10.60;1.00
22112;DHT22;11222;50.872;4.312;2024-03-23T12:59:57;10.80;1.00
22112;DHT22;11222;50.872;4.312;2024-03-23T13:02:22;11.00;1.00
22112;DHT22;11222;50.872;4.312;2024-03-23T13:04:51;11.40;1.00
22112;DHT22;11222;50.872;4.312;2024-03-23T13:07:17;11.60;1.00
22112;DHT22;11222;50.872;4.312;2024-03-23T13:09:43;11.40;1.00
22112;DHT22;11222;50.872;4.312;2024-03-23T13:12:09;11.10;99.90
22112;DHT22;11222;50.872;4.312;2024-03-23T13:14:35;11.00;99.90
22112;DHT22;11222;50.872;4.312;2024-03-23T13:17:00;11.00;99.90
22112;DHT22;11222;50.872;4.312;2024-03-23T13:19:27;10.70;99.90
22112;DHT22;11222;50.872;4.312;2024-03-23T13:21:56;10.40;99.90
22112;DHT22;11222;50.872;4.312;2024-03-23T13:24:25;10.30;99.90
22112;DHT22;11222;50.872;4.312;2024-03-23T13:26:51;10.60;99.90
22112;DHT22;11222;50.872;4.312;2024-03-23T13:29:18;10.90;99.90
22112;DHT22;11222;50.872;4.312;2024-03-23T13:31:44;10.90;99.90
22112;DHT22;11222;50.872;4.312;2024-03-23T13:34:09;11.00;99.90
22112;DHT22;11222;50.872;4.312;2024-03-23T13:36:35;10.70;1.00
22112;DHT22;11222;50.872;4.312;2024-03-23T13:39:02;10.50;1.00
22112;DHT22;11222;50.872;4.312;2024-03-23T13:41:30;10.20;1.00
22112;DHT22;11222;50.872;4.312;2024-03-23T13:43:56;9.70;1.00
22112;DHT22;11222;50.872;4.312;2024-03-23T13:46:21;9.50;1.00
22112;DHT22;11222;50.872;4.312;2024-03-23T13:48:47;9.60;1.00
22112;DHT22;11222;50.872;4.312;2024-03-23T13:51:12;9.70;6.40
22112;DHT22;11222;50.872;4.312;2024-03-23T13:53:38;10.10;14.00
22112;DHT22;11222;50.872;4.312;2024-03-23T13:56:04;10.30;10.30
22112;DHT22;11222;50.872;4.312;2024-03-23T13:58:35;10.50;4.20
22112;DHT22;11222;50.872;4.312;2024-03-23T14:01:00;10.70;8.20
22112;DHT22;11222;50.872;4.312;2024-03-23T14:03:26;10.50;1.00
22112;DHT22;11222;50.872;4.312;2024-03-23T14:05:54;10.50;1.00
22112;DHT22;11222;50.872;4.312;2024-03-23T14:08:23;10.50;1.00
22112;DHT22;11222;50.872;4.312;2024-03-23T14:10:48;10.60;1.00
22112;DHT22;11222;50.872;4.312;2024-03-23T14:13:14;10.40;1.00
22112;DHT22;11222;50.872;4.312;2024-03-23T14:15:40;10.40;1.00
22112;DHT22;11222;50.872;4.312;2024-03-23T14:18:05;10.30;1.00
22112;DHT22;11222;50.872;4.312;2024-03-23T14:20:33;10.30;1.00
22112;DHT22;11222;50.872;4.312;2024-03-23T14:22:59;10.30;1.00
22112;DHT22;11222;50.872;4.312;2024-03-23T14:25:25;10.30;1.00
22112;DHT22;11222;50.872;4.312;2024-03-23T14:27:54;10.40;1.00
22112;DHT22;11222;50.872;4.312;2024-03-23T14:30:20;10.10;1.00
22112;DHT22;11222;50.872;4.312;2024-03-23T14:32:45;10.00;1.00
22112;DHT22;11222;50.872;4.312;2024-03-23T14:35:11;9.80;1.00
22112;DHT22;11222;50.872;4.312;2024-03-23T14:37:37;9.70;1.00
22112;DHT22;11222;50.872;4.312;2024-03-23T14:40:03;9.80;1.00
22112;DHT22;11222;50.872;4.312;2024-03-23T14:42:29;9.80;1.00
22112;DHT22;11222;50.872;4.312;2024-03-23T14:44:55;10.00;1.00
22112;DHT22;11222;50.872;4.312;2024-03-23T14:47:21;10.30;1.00
22112;DHT22;11222;50.872;4.312;2024-03-23T14:49:46;10.70;1.00
22112;DHT22;11222;50.872;4.312;2024-03-23T14:52:16;11.00;1.00
22112;DHT22;11222;50.872;4.312;2024-03-23T14:54:42;11.00;1.00
22112;DHT22;11222;50.872;4.312;2024-03-23T14:57:07;10.90;1.00
22112;DHT22;11222;50.872;4.312;2024-03-23T14:59:36;10.80;1.00
22112;DHT22;11222;50.872;4.312;2024-03-23T15:02:06;10.50;1.00
22112;DHT22;11222;50.872;4.312;2024-03-23T15:04:32;10.40;1.00
22112;DHT22;11222;50.872;4.312;2024-03-23T15:06:57;10.50;1.00
22112;DHT22;11222;50.872;4.312;2024-03-23T15:09:23;10.80;1.00
22112;DHT22;11222;50.872;4.312;2024-03-23T15:11:48;10.90;1.00
22112;DHT22;11222;50.872;4.312;2024-03-23T15:14:14;11.10;1.00
22112;DHT22;11222;50.872;4.312;2024-03-23T15:16:39;10.90;1.00
22112;DHT22;11222;50.872;4.312;2024-03-23T15:19:07;10.90;1.00
22112;DHT22;11222;50.872;4.312;2024-03-23T15:21:33;10.90;1.00
22112;DHT22;11222;50.872;4.312;2024-03-23T15:23:59;10.80;1.00
22112;DHT22;11222;50.872;4.312;2024-03-23T15:26:24;10.60;1.00
22112;DHT22;11222;50.872;4.312;2024-03-23T15:28:50;10.50;1.00
22112;DHT22;11222;50.872;4.312;2024-03-23T15:31:21;10.60;1.00
22112;DHT22;11222;50.872;4.312;2024-03-23T15:33:47;10.70;1.00
22112;DHT22;11222;50.872;4.312;2024-03-23T15:36:12;10.90;1.00
22112;DHT22;11222;50.872;4.312;2024-03-23T15:38:38;11.00;1.00
22112;DHT22;11222;50.872;4.312;2024-03-23T15:41:07;11.00;1.00
22112;DHT22;11222;50.872;4.312;2024-03-23T15:43:33;11.10;1.00
22112;DHT22;11222;50.872;4.312;2024-03-23T15:46:03;11.10;1.00
22112;DHT22;11222;50.872;4.312;2024-03-23T15:48:29;11.00;1.00
22112;DHT22;11222;50.872;4.312;2024-03-23T15:51:01;10.90;1.00
22112;DHT22;11222;50.872;4.312;2024-03-23T15:53:28;10.90;1.00
22112;DHT22;11222;50.872;4.312;2024-03-23T15:58:22;10.90;1.00
22112;DHT22;11222;50.872;4.312;2024-03-23T16:00:57;11.20;1.00
22112;DHT22;11222;50.872;4.312;2024-03-23T16:03:23;11.30;1.00
22112;DHT22;11222;50.872;4.312;2024-03-23T16:05:56;11.10;1.00
22112;DHT22;11222;50.872;4.312;2024-03-23T16:08:22;10.80;1.00
22112;DHT22;11222;50.872;4.312;2024-03-23T16:10:48;10.70;1.00
22112;DHT22;11222;50.872;4.312;2024-03-23T16:13:13;10.60;1.00
22112;DHT22;11222;50.872;4.312;2024-03-23T16:15:39;10.60;1.00
22112;DHT22;11222;50.872;4.312;2024-03-23T16:18:05;10.40;1.00
22112;DHT22;11222;50.872;4.312;2024-03-23T16:20:30;10.50;1.00
22112;DHT22;11222;50.872;4.312;2024-03-23T16:23:02;10.40;1.00
22112;DHT22;11222;50.872;4.312;2024-03-23T16:25:28;10.40;1.00
22112;DHT22;11222;50.872;4.312;2024-03-23T16:27:53;10.50;1.00
22112;DHT22;11222;50.872;4.312;2024-03-23T16:30:19;10.70;1.00
22112;DHT22;11222;50.872;4.312;2024-03-23T16:32:46;10.60;1.00
22112;DHT22;11222;50.872;4.312;2024-03-23T16:35:12;10.50;1.00
22112;DHT22;11222;50.872;4.312;2024-03-23T16:37:37;10.50;1.00
22112;DHT22;11222;50.872;4.312;2024-03-23T16:40:03;10.50;1.00
22112;DHT22;11222;50.872;4.312;2024-03-23T16:42:31;10.40;1.00